sensor_id;sensor_type;location;lat;lon;timestamp;pressure;altitude;pressure_sealevel;temperature
54746;BMP180;40640;48.130;11.356;2023-01-10T00:02:00;95117.00;;;6.80
54746;BMP180;40640;48.130;11.356;2023-01-10T00:06:03;95121.00;;;6.50
54746;BMP180;40640;48.130;11.356;2023-01-10T00:10:08;95127.00;;;6.40
54746;BMP180;40640;48.130;11.356;2023-01-10T00:14:11;95115.00;;;6.40
54746;BMP180;40640;48.130;11.356;2023-01-10T00:18:14;95116.00;;;6.40
54746;BMP180;40640;48.130;11.356;2023-01-10T00:22:17;95114.00;;;6.50
54746;BMP180;40640;48.130;11.356;2023-01-10T00:26:25;95126.00;;;6.50
54746;BMP180;40640;48.130;11.356;2023-01-10T00:30:28;95127.00;;;6.30
54746;BMP180;40640;48.130;11.356;2023-01-10T00:34:32;95132.00;;;6.40
54746;BMP180;40640;48.130;11.356;2023-01-10T00:38:35;95139.00;;;6.40
54746;BMP180;40640;48.130;11.356;2023-01-10T00:42:39;95139.00;;;6.50
54746;BMP180;40640;48.130;11.356;2023-01-10T00:47:00;95144.00;;;6.30
54746;BMP180;40640;48.130;11.356;2023-01-10T00:51:03;95150.00;;;6.20
54746;BMP180;40640;48.130;11.356;2023-01-10T00:55:06;95157.00;;;6.40
54746;BMP180;40640;48.130;11.356;2023-01-10T00:59:11;95169.00;;;6.30
54746;BMP180;40640;48.130;11.356;2023-01-10T01:03:14;95184.00;;;6.40
54746;BMP180;40640;48.130;11.356;2023-01-10T01:07:17;95186.00;;;6.40
54746;BMP180;40640;48.130;11.356;2023-01-10T01:11:20;95192.00;;;6.30
54746;BMP180;40640;48.130;11.356;2023-01-10T01:15:25;95197.00;;;6.20
54746;BMP180;40640;48.130;11.356;2023-01-10T01:19:29;95213.00;;;6.20
54746;BMP180;40640;48.130;11.356;2023-01-10T01:23:33;95214.00;;;6.20
54746;BMP180;40640;48.130;11.356;2023-01-10T01:27:36;95226.00;;;6.30
54746;BMP180;40640;48.130;11.356;2023-01-10T01:31:40;95239.00;;;6.10
54746;BMP180;40640;48.130;11.356;2023-01-10T01:35:44;95252.00;;;6.10
54746;BMP180;40640;48.130;11.356;2023-01-10T01:39:47;95252.00;;;6.20
54746;BMP180;40640;48.130;11.356;2023-01-10T01:44:02;95257.00;;;6.10
54746;BMP180;40640;48.130;11.356;2023-01-10T01:48:22;95257.00;;;6.20
54746;BMP180;40640;48.130;11.356;2023-01-10T01:52:29;95269.00;;;6.10
54746;BMP180;40640;48.130;11.356;2023-01-10T01:56:37;95282.00;;;6.10
54746;BMP180;40640;48.130;11.356;2023-01-10T02:00:43;95279.00;;;6.30
54746;BMP180;40640;48.130;11.356;2023-01-10T02:04:50;95276.00;;;6.20
54746;BMP180;40640;48.130;11.356;2023-01-10T02:09:00;95277.00;;;6.10
54746;BMP180;40640;48.130;11.356;2023-01-10T02:13:06;95289.00;;;6.20
54746;BMP180;40640;48.130;11.356;2023-01-10T02:17:10;95279.00;;;6.30
54746;BMP180;40640;48.130;11.356;2023-01-10T02:21:36;95287.00;;;6.30
54746;BMP180;40640;48.130;11.356;2023-01-10T02:30:34;95315.00;;;6.00
54746;BMP180;40640;48.130;11.356;2023-01-10T02:34:52;95303.00;;;6.10
54746;BMP180;40640;48.130;11.356;2023-01-10T02:39:00;95310.00;;;6.00
54746;BMP180;40640;48.130;11.356;2023-01-10T02:43:09;95329.00;;;6.00
54746;BMP180;40640;48.130;11.356;2023-01-10T02:47:13;95325.00;;;6.30
54746;BMP180;40640;48.130;11.356;2023-01-10T02:51:19;95327.00;;;6.20
54746;BMP180;40640;48.130;11.356;2023-01-10T02:55:28;95335.00;;;5.90
54746;BMP180;40640;48.130;11.356;2023-01-10T02:59:53;95338.00;;;6.20
54746;BMP180;40640;48.130;11.356;2023-01-10T03:04:05;95346.00;;;6.00
54746;BMP180;40640;48.130;11.356;2023-01-10T03:08:18;95360.00;;;6.30
54746;BMP180;40640;48.130;11.356;2023-01-10T03:13:04;95367.00;;;6.20
54746;BMP180;40640;48.130;11.356;2023-01-10T03:17:11;95366.00;;;6.10
54746;BMP180;40640;48.130;11.356;2023-01-10T03:21:16;95365.00;;;5.90
54746;BMP180;40640;48.130;11.356;2023-01-10T03:25:24;95373.00;;;5.80
54746;BMP180;40640;48.130;11.356;2023-01-10T03:29:32;95380.00;;;5.80
54746;BMP180;40640;48.130;11.356;2023-01-10T03:33:37;95400.00;;;5.80
54746;BMP180;40640;48.130;11.356;2023-01-10T03:37:43;95402.00;;;5.80
54746;BMP180;40640;48.130;11.356;2023-01-10T03:41:49;95413.00;;;5.90
54746;BMP180;40640;48.130;11.356;2023-01-10T03:45:57;95418.00;;;6.00
54746;BMP180;40640;48.130;11.356;2023-01-10T03:50:03;95435.00;;;5.80
54746;BMP180;40640;48.130;11.356;2023-01-10T03:54:08;95431.00;;;5.90
54746;BMP180;40640;48.130;11.356;2023-01-10T03:58:12;95437.00;;;5.80
54746;BMP180;40640;48.130;11.356;2023-01-10T04:02:15;95434.00;;;5.80
54746;BMP180;40640;48.130;11.356;2023-01-10T04:06:18;95450.00;;;5.80
54746;BMP180;40640;48.130;11.356;2023-01-10T04:10:21;95460.00;;;5.80
54746;BMP180;40640;48.130;11.356;2023-01-10T04:14:28;95467.00;;;5.70
54746;BMP180;40640;48.130;11.356;2023-01-10T04:18:33;95474.00;;;5.90
54746;BMP180;40640;48.130;11.356;2023-01-10T04:22:36;95486.00;;;5.80
54746;BMP180;40640;48.130;11.356;2023-01-10T04:26:38;95497.00;;;5.90
54746;BMP180;40640;48.130;11.356;2023-01-10T04:30:43;95517.00;;;5.90
54746;BMP180;40640;48.130;11.356;2023-01-10T04:34:45;95511.00;;;5.90
54746;BMP180;40640;48.130;11.356;2023-01-10T04:38:48;95514.00;;;5.90
54746;BMP180;40640;48.130;11.356;2023-01-10T04:42:51;95517.00;;;5.90
54746;BMP180;40640;48.130;11.356;2023-01-10T04:46:55;95523.00;;;5.90
54746;BMP180;40640;48.130;11.356;2023-01-10T04:50:58;95532.00;;;5.90
54746;BMP180;40640;48.130;11.356;2023-01-10T04:55:01;95533.00;;;5.80
54746;BMP180;40640;48.130;11.356;2023-01-10T04:59:04;95555.00;;;5.80
54746;BMP180;40640;48.130;11.356;2023-01-10T05:03:09;95564.00;;;6.00
54746;BMP180;40640;48.130;11.356;2023-01-10T05:07:12;95561.00;;;5.80
54746;BMP180;40640;48.130;11.356;2023-01-10T05:11:15;95573.00;;;5.80
54746;BMP180;40640;48.130;11.356;2023-01-10T05:15:18;95591.00;;;5.70
54746;BMP180;40640;48.130;11.356;2023-01-10T05:19:23;95604.00;;;5.70
54746;BMP180;40640;48.130;11.356;2023-01-10T05:23:26;95602.00;;;5.60
54746;BMP180;40640;48.130;11.356;2023-01-10T05:27:29;95625.00;;;5.70
54746;BMP180;40640;48.130;11.356;2023-01-10T05:31:31;95624.00;;;5.60
54746;BMP180;40640;48.130;11.356;2023-01-10T05:35:35;95626.00;;;5.80
54746;BMP180;40640;48.130;11.356;2023-01-10T05:39:38;95623.00;;;5.70
54746;BMP180;40640;48.130;11.356;2023-01-10T05:43:42;95634.00;;;5.70
54746;BMP180;40640;48.130;11.356;2023-01-10T05:47:44;95640.00;;;5.80
54746;BMP180;40640;48.130;11.356;2023-01-10T05:51:49;95651.00;;;5.70
54746;BMP180;40640;48.130;11.356;2023-01-10T05:55:53;95662.00;;;5.60
54746;BMP180;40640;48.130;11.356;2023-01-10T05:59:56;95673.00;;;5.60
54746;BMP180;40640;48.130;11.356;2023-01-10T06:03:58;95671.00;;;5.70
54746;BMP180;40640;48.130;11.356;2023-01-10T06:08:03;95682.00;;;5.70
54746;BMP180;40640;48.130;11.356;2023-01-10T06:12:06;95687.00;;;5.60
54746;BMP180;40640;48.130;11.356;2023-01-10T06:16:09;95699.00;;;5.60
54746;BMP180;40640;48.130;11.356;2023-01-10T06:20:13;95715.00;;;5.60
54746;BMP180;40640;48.130;11.356;2023-01-10T06:24:18;95722.00;;;5.70
54746;BMP180;40640;48.130;11.356;2023-01-10T06:28:20;95733.00;;;5.50
54746;BMP180;40640;48.130;11.356;2023-01-10T06:32:23;95740.00;;;5.50
54746;BMP180;40640;48.130;11.356;2023-01-10T06:36:26;95752.00;;;5.60
54746;BMP180;40640;48.130;11.356;2023-01-10T06:40:30;95755.00;;;5.70
54746;BMP180;40640;48.130;11.356;2023-01-10T06:44:33;95771.00;;;5.80
54746;BMP180;40640;48.130;11.356;2023-01-10T06:48:36;95769.00;;;5.60
54746;BMP180;40640;48.130;11.356;2023-01-10T06:52:39;95784.00;;;5.70
54746;BMP180;40640;48.130;11.356;2023-01-10T06:56:46;95793.00;;;5.60
54746;BMP180;40640;48.130;11.356;2023-01-10T07:00:49;95805.00;;;5.60
54746;BMP180;40640;48.130;11.356;2023-01-10T07:04:52;95817.00;;;5.60
54746;BMP180;40640;48.130;11.356;2023-01-10T07:08:55;95822.00;;;5.70
54746;BMP180;40640;48.130;11.356;2023-01-10T07:12:59;95844.00;;;5.60
54746;BMP180;40640;48.130;11.356;2023-01-10T07:17:02;95847.00;;;5.50
54746;BMP180;40640;48.130;11.356;2023-01-10T07:21:05;95867.00;;;5.50
54746;BMP180;40640;48.130;11.356;2023-01-10T07:25:08;95878.00;;;5.70
54746;BMP180;40640;48.130;11.356;2023-01-10T07:29:13;95882.00;;;5.60
54746;BMP180;40640;48.130;11.356;2023-01-10T07:33:15;95898.00;;;5.50
54746;BMP180;40640;48.130;11.356;2023-01-10T07:37:18;95906.00;;;5.70
54746;BMP180;40640;48.130;11.356;2023-01-10T07:41:21;95924.00;;;5.70
54746;BMP180;40640;48.130;11.356;2023-01-10T07:45:26;95925.00;;;5.60
54746;BMP180;40640;48.130;11.356;2023-01-10T07:49:29;95922.00;;;5.50
54746;BMP180;40640;48.130;11.356;2023-01-10T07:53:32;95946.00;;;5.50
54746;BMP180;40640;48.130;11.356;2023-01-10T07:57:35;95958.00;;;5.60
54746;BMP180;40640;48.130;11.356;2023-01-10T08:01:39;95955.00;;;5.60
54746;BMP180;40640;48.130;11.356;2023-01-10T08:05:42;95961.00;;;5.50
54746;BMP180;40640;48.130;11.356;2023-01-10T08:09:45;95978.00;;;5.60
54746;BMP180;40640;48.130;11.356;2023-01-10T08:13:48;95977.00;;;5.50
54746;BMP180;40640;48.130;11.356;2023-01-10T08:17:53;95982.00;;;5.40
54746;BMP180;40640;48.130;11.356;2023-01-10T08:21:55;95994.00;;;5.60
54746;BMP180;40640;48.130;11.356;2023-01-10T08:25:58;96000.00;;;5.50
54746;BMP180;40640;48.130;11.356;2023-01-10T08:30:01;96010.00;;;5.60
54746;BMP180;40640;48.130;11.356;2023-01-10T08:34:05;96010.00;;;5.60
54746;BMP180;40640;48.130;11.356;2023-01-10T08:38:09;96025.00;;;5.60
54746;BMP180;40640;48.130;11.356;2023-01-10T08:42:12;96046.00;;;5.30
54746;BMP180;40640;48.130;11.356;2023-01-10T08:46:16;96051.00;;;5.30
54746;BMP180;40640;48.130;11.356;2023-01-10T08:50:23;96040.00;;;5.30
54746;BMP180;40640;48.130;11.356;2023-01-10T08:54:26;96043.00;;;5.30
54746;BMP180;40640;48.130;11.356;2023-01-10T08:58:29;96045.00;;;5.20
54746;BMP180;40640;48.130;11.356;2023-01-10T09:02:31;96060.00;;;5.30
54746;BMP180;40640;48.130;11.356;2023-01-10T09:06:36;96078.00;;;5.30
54746;BMP180;40640;48.130;11.356;2023-01-10T09:10:39;96069.00;;;5.50
54746;BMP180;40640;48.130;11.356;2023-01-10T09:14:42;96077.00;;;5.60
54746;BMP180;40640;48.130;11.356;2023-01-10T09:18:45;96077.00;;;5.70
54746;BMP180;40640;48.130;11.356;2023-01-10T09:22:49;96071.00;;;5.70
54746;BMP180;40640;48.130;11.356;2023-01-10T09:26:52;96075.00;;;5.90
54746;BMP180;40640;48.130;11.356;2023-01-10T09:30:55;96092.00;;;6.00
54746;BMP180;40640;48.130;11.356;2023-01-10T09:34:57;96096.00;;;6.40
54746;BMP180;40640;48.130;11.356;2023-01-10T09:39:02;96111.00;;;6.70
54746;BMP180;40640;48.130;11.356;2023-01-10T09:43:12;96116.00;;;6.70
54746;BMP180;40640;48.130;11.356;2023-01-10T09:47:23;96117.00;;;6.70
54746;BMP180;40640;48.130;11.356;2023-01-10T09:51:34;96133.00;;;6.80
54746;BMP180;40640;48.130;11.356;2023-01-10T09:55:40;96126.00;;;6.70
54746;BMP180;40640;48.130;11.356;2023-01-10T09:59:44;96130.00;;;6.70
54746;BMP180;40640;48.130;11.356;2023-01-10T10:03:56;96134.00;;;6.60
54746;BMP180;40640;48.130;11.356;2023-01-10T10:08:01;96124.00;;;6.50
54746;BMP180;40640;48.130;11.356;2023-01-10T10:12:21;96147.00;;;6.40
54746;BMP180;40640;48.130;11.356;2023-01-10T10:16:35;96130.00;;;6.40
54746;BMP180;40640;48.130;11.356;2023-01-10T10:20:50;96124.00;;;6.50
54746;BMP180;40640;48.130;11.356;2023-01-10T10:25:02;96130.00;;;6.30
54746;BMP180;40640;48.130;11.356;2023-01-10T10:29:34;96134.00;;;6.50
54746;BMP180;40640;48.130;11.356;2023-01-10T10:33:53;96124.00;;;6.70
54746;BMP180;40640;48.130;11.356;2023-01-10T10:38:03;96133.00;;;6.60
54746;BMP180;40640;48.130;11.356;2023-01-10T10:42:12;96134.00;;;6.80
54746;BMP180;40640;48.130;11.356;2023-01-10T10:46:17;96117.00;;;7.00
54746;BMP180;40640;48.130;11.356;2023-01-10T10:50:26;96125.00;;;7.30
54746;BMP180;40640;48.130;11.356;2023-01-10T10:54:31;96116.00;;;7.40
54746;BMP180;40640;48.130;11.356;2023-01-10T10:58:37;96124.00;;;7.30
54746;BMP180;40640;48.130;11.356;2023-01-10T11:02:48;96131.00;;;7.20
54746;BMP180;40640;48.130;11.356;2023-01-10T11:06:53;96130.00;;;7.00
54746;BMP180;40640;48.130;11.356;2023-01-10T11:10:58;96136.00;;;7.00
54746;BMP180;40640;48.130;11.356;2023-01-10T11:15:04;96143.00;;;6.80
54746;BMP180;40640;48.130;11.356;2023-01-10T11:19:17;96144.00;;;6.70
54746;BMP180;40640;48.130;11.356;2023-01-10T11:23:24;96140.00;;;6.60
54746;BMP180;40640;48.130;11.356;2023-01-10T11:27:29;96140.00;;;6.60
54746;BMP180;40640;48.130;11.356;2023-01-10T11:31:33;96132.00;;;6.50
54746;BMP180;40640;48.130;11.356;2023-01-10T11:35:55;96135.00;;;6.50
54746;BMP180;40640;48.130;11.356;2023-01-10T11:40:18;96125.00;;;6.50
54746;BMP180;40640;48.130;11.356;2023-01-10T11:44:23;96114.00;;;6.70
54746;BMP180;40640;48.130;11.356;2023-01-10T11:48:37;96125.00;;;7.00
54746;BMP180;40640;48.130;11.356;2023-01-10T11:53:05;96126.00;;;6.90
54746;BMP180;40640;48.130;11.356;2023-01-10T11:57:15;96140.00;;;6.90
54746;BMP180;40640;48.130;11.356;2023-01-10T12:01:25;96136.00;;;7.10
54746;BMP180;40640;48.130;11.356;2023-01-10T12:05:28;96147.00;;;7.20
54746;BMP180;40640;48.130;11.356;2023-01-10T12:09:35;96147.00;;;7.20
54746;BMP180;40640;48.130;11.356;2023-01-10T12:13:45;96143.00;;;7.30
54746;BMP180;40640;48.130;11.356;2023-01-10T12:17:49;96135.00;;;7.50
54746;BMP180;40640;48.130;11.356;2023-01-10T12:21:53;96144.00;;;7.50
54746;BMP180;40640;48.130;11.356;2023-01-10T12:25:59;96137.00;;;7.40
54746;BMP180;40640;48.130;11.356;2023-01-10T12:30:16;96137.00;;;7.30
54746;BMP180;40640;48.130;11.356;2023-01-10T12:34:23;96146.00;;;7.30
54746;BMP180;40640;48.130;11.356;2023-01-10T12:38:31;96146.00;;;7.60
54746;BMP180;40640;48.130;11.356;2023-01-10T12:42:56;96147.00;;;7.80
54746;BMP180;40640;48.130;11.356;2023-01-10T12:47:26;96152.00;;;7.90
54746;BMP180;40640;48.130;11.356;2023-01-10T12:51:30;96158.00;;;7.60
54746;BMP180;40640;48.130;11.356;2023-01-10T12:55:36;96150.00;;;7.50
54746;BMP180;40640;48.130;11.356;2023-01-10T12:59:43;96146.00;;;7.70
54746;BMP180;40640;48.130;11.356;2023-01-10T13:03:52;96164.00;;;7.80
54746;BMP180;40640;48.130;11.356;2023-01-10T13:08:05;96152.00;;;7.80
54746;BMP180;40640;48.130;11.356;2023-01-10T13:12:10;96148.00;;;7.80
54746;BMP180;40640;48.130;11.356;2023-01-10T13:16:28;96146.00;;;7.90
54746;BMP180;40640;48.130;11.356;2023-01-10T13:20:39;96148.00;;;7.90
54746;BMP180;40640;48.130;11.356;2023-01-10T13:24:53;96143.00;;;7.80
54746;BMP180;40640;48.130;11.356;2023-01-10T13:28:58;96147.00;;;7.80
54746;BMP180;40640;48.130;11.356;2023-01-10T13:33:04;96154.00;;;7.80
54746;BMP180;40640;48.130;11.356;2023-01-10T13:37:10;96149.00;;;7.80
54746;BMP180;40640;48.130;11.356;2023-01-10T13:41:14;96154.00;;;7.60
54746;BMP180;40640;48.130;11.356;2023-01-10T13:45:31;96163.00;;;7.50
54746;BMP180;40640;48.130;11.356;2023-01-10T13:49:43;96148.00;;;7.30
54746;BMP180;40640;48.130;11.356;2023-01-10T13:54:03;96154.00;;;7.30
54746;BMP180;40640;48.130;11.356;2023-01-10T13:58:43;96154.00;;;7.40
54746;BMP180;40640;48.130;11.356;2023-01-10T14:03:03;96149.00;;;7.20
54746;BMP180;40640;48.130;11.356;2023-01-10T14:07:19;96148.00;;;7.30
54746;BMP180;40640;48.130;11.356;2023-01-10T14:11:26;96147.00;;;7.30
54746;BMP180;40640;48.130;11.356;2023-01-10T14:15:37;96158.00;;;7.80
54746;BMP180;40640;48.130;11.356;2023-01-10T14:19:42;96149.00;;;8.20
54746;BMP180;40640;48.130;11.356;2023-01-10T14:23:49;96149.00;;;8.50
54746;BMP180;40640;48.130;11.356;2023-01-10T14:27:54;96155.00;;;8.50
54746;BMP180;40640;48.130;11.356;2023-01-10T14:31:59;96158.00;;;8.10
54746;BMP180;40640;48.130;11.356;2023-01-10T14:36:07;96156.00;;;7.90
54746;BMP180;40640;48.130;11.356;2023-01-10T14:40:19;96171.00;;;7.90
54746;BMP180;40640;48.130;11.356;2023-01-10T14:44:26;96168.00;;;8.00
54746;BMP180;40640;48.130;11.356;2023-01-10T14:48:32;96162.00;;;7.90
54746;BMP180;40640;48.130;11.356;2023-01-10T14:52:35;96163.00;;;7.80
54746;BMP180;40640;48.130;11.356;2023-01-10T14:56:41;96167.00;;;7.70
54746;BMP180;40640;48.130;11.356;2023-01-10T15:00:44;96164.00;;;7.80
54746;BMP180;40640;48.130;11.356;2023-01-10T15:04:52;96172.00;;;7.90
54746;BMP180;40640;48.130;11.356;2023-01-10T15:08:57;96151.00;;;7.80
54746;BMP180;40640;48.130;11.356;2023-01-10T15:13:02;96155.00;;;7.70
54746;BMP180;40640;48.130;11.356;2023-01-10T15:17:10;96167.00;;;7.60
54746;BMP180;40640;48.130;11.356;2023-01-10T15:21:21;96175.00;;;7.50
54746;BMP180;40640;48.130;11.356;2023-01-10T15:25:27;96166.00;;;7.20
54746;BMP180;40640;48.130;11.356;2023-01-10T15:29:32;96153.00;;;7.20
54746;BMP180;40640;48.130;11.356;2023-01-10T15:33:36;96150.00;;;7.00
54746;BMP180;40640;48.130;11.356;2023-01-10T15:37:46;96155.00;;;6.80
54746;BMP180;40640;48.130;11.356;2023-01-10T15:41:54;96143.00;;;6.70
54746;BMP180;40640;48.130;11.356;2023-01-10T15:46:01;96152.00;;;6.50
54746;BMP180;40640;48.130;11.356;2023-01-10T15:50:18;96160.00;;;6.40
54746;BMP180;40640;48.130;11.356;2023-01-10T15:54:29;96160.00;;;6.40
54746;BMP180;40640;48.130;11.356;2023-01-10T15:58:34;96152.00;;;6.20
54746;BMP180;40640;48.130;11.356;2023-01-10T16:02:39;96151.00;;;6.40
54746;BMP180;40640;48.130;11.356;2023-01-10T16:06:42;96136.00;;;6.10
54746;BMP180;40640;48.130;11.356;2023-01-10T16:10:51;96139.00;;;6.00
54746;BMP180;40640;48.130;11.356;2023-01-10T16:14:55;96139.00;;;6.00
54746;BMP180;40640;48.130;11.356;2023-01-10T16:18:59;96144.00;;;5.90
54746;BMP180;40640;48.130;11.356;2023-01-10T16:23:04;96133.00;;;5.90
54746;BMP180;40640;48.130;11.356;2023-01-10T16:27:09;96139.00;;;5.80
54746;BMP180;40640;48.130;11.356;2023-01-10T16:31:12;96132.00;;;5.80
54746;BMP180;40640;48.130;11.356;2023-01-10T16:35:18;96132.00;;;5.60
54746;BMP180;40640;48.130;11.356;2023-01-10T16:39:22;96140.00;;;5.50
54746;BMP180;40640;48.130;11.356;2023-01-10T16:43:25;96128.00;;;5.40
54746;BMP180;40640;48.130;11.356;2023-01-10T16:47:29;96125.00;;;5.40
54746;BMP180;40640;48.130;11.356;2023-01-10T16:51:37;96126.00;;;5.30
54746;BMP180;40640;48.130;11.356;2023-01-10T16:55:41;96114.00;;;5.20
54746;BMP180;40640;48.130;11.356;2023-01-10T16:59:44;96116.00;;;5.20
54746;BMP180;40640;48.130;11.356;2023-01-10T17:03:47;96102.00;;;5.10
54746;BMP180;40640;48.130;11.356;2023-01-10T17:07:51;96101.00;;;5.00
54746;BMP180;40640;48.130;11.356;2023-01-10T17:11:56;96104.00;;;4.90
54746;BMP180;40640;48.130;11.356;2023-01-10T17:16:03;96101.00;;;4.90
54746;BMP180;40640;48.130;11.356;2023-01-10T17:20:08;96098.00;;;4.90
54746;BMP180;40640;48.130;11.356;2023-01-10T17:24:12;96094.00;;;4.90
54746;BMP180;40640;48.130;11.356;2023-01-10T17:28:16;96107.00;;;4.80
54746;BMP180;40640;48.130;11.356;2023-01-10T17:32:19;96091.00;;;4.80
54746;BMP180;40640;48.130;11.356;2023-01-10T17:36:22;96091.00;;;4.70
54746;BMP180;40640;48.130;11.356;2023-01-10T17:40:30;96092.00;;;4.70
54746;BMP180;40640;48.130;11.356;2023-01-10T17:44:33;96093.00;;;4.60
54746;BMP180;40640;48.130;11.356;2023-01-10T17:48:36;96098.00;;;4.70
54746;BMP180;40640;48.130;11.356;2023-01-10T17:52:39;96093.00;;;4.70
54746;BMP180;40640;48.130;11.356;2023-01-10T17:56:43;96089.00;;;4.70
54746;BMP180;40640;48.130;11.356;2023-01-10T18:00:46;96104.00;;;4.60
54746;BMP180;40640;48.130;11.356;2023-01-10T18:04:49;96086.00;;;4.40
54746;BMP180;40640;48.130;11.356;2023-01-10T18:08:53;96084.00;;;4.50
54746;BMP180;40640;48.130;11.356;2023-01-10T18:12:57;96075.00;;;4.40
54746;BMP180;40640;48.130;11.356;2023-01-10T18:17:05;96069.00;;;4.40
54746;BMP180;40640;48.130;11.356;2023-01-10T18:21:12;96062.00;;;4.30
54746;BMP180;40640;48.130;11.356;2023-01-10T18:25:15;96076.00;;;4.40
54746;BMP180;40640;48.130;11.356;2023-01-10T18:29:19;96070.00;;;4.30
54746;BMP180;40640;48.130;11.356;2023-01-10T18:33:22;96067.00;;;4.40
54746;BMP180;40640;48.130;11.356;2023-01-10T18:37:25;96058.00;;;4.20
54746;BMP180;40640;48.130;11.356;2023-01-10T18:41:28;96061.00;;;4.30
54746;BMP180;40640;48.130;11.356;2023-01-10T18:45:33;96062.00;;;4.30
54746;BMP180;40640;48.130;11.356;2023-01-10T18:49:36;96074.00;;;4.20
54746;BMP180;40640;48.130;11.356;2023-01-10T18:53:40;96069.00;;;4.20
54746;BMP180;40640;48.130;11.356;2023-01-10T18:57:43;96061.00;;;4.30
54746;BMP180;40640;48.130;11.356;2023-01-10T19:01:47;96060.00;;;4.20
54746;BMP180;40640;48.130;11.356;2023-01-10T19:05:50;96059.00;;;4.10
54746;BMP180;40640;48.130;11.356;2023-01-10T19:09:53;96042.00;;;4.00
54746;BMP180;40640;48.130;11.356;2023-01-10T19:13:56;96039.00;;;4.00
54746;BMP180;40640;48.130;11.356;2023-01-10T19:18:00;96038.00;;;4.10
54746;BMP180;40640;48.130;11.356;2023-01-10T19:22:04;96038.00;;;4.00
54746;BMP180;40640;48.130;11.356;2023-01-10T19:26:07;96041.00;;;4.00
54746;BMP180;40640;48.130;11.356;2023-01-10T19:30:10;96034.00;;;3.90
54746;BMP180;40640;48.130;11.356;2023-01-10T19:34:15;96028.00;;;3.90
54746;BMP180;40640;48.130;11.356;2023-01-10T19:38:18;96029.00;;;3.90
54746;BMP180;40640;48.130;11.356;2023-01-10T19:42:21;96028.00;;;3.90
54746;BMP180;40640;48.130;11.356;2023-01-10T19:46:27;96023.00;;;3.90
54746;BMP180;40640;48.130;11.356;2023-01-10T19:50:33;96013.00;;;3.90
54746;BMP180;40640;48.130;11.356;2023-01-10T19:54:36;96010.00;;;3.90
54746;BMP180;40640;48.130;11.356;2023-01-10T19:58:39;96026.00;;;3.90
54746;BMP180;40640;48.130;11.356;2023-01-10T20:02:42;96007.00;;;3.90
54746;BMP180;40640;48.130;11.356;2023-01-10T20:06:46;96004.00;;;3.80
54746;BMP180;40640;48.130;11.356;2023-01-10T20:10:49;96000.00;;;3.80
54746;BMP180;40640;48.130;11.356;2023-01-10T20:14:52;96004.00;;;3.80
54746;BMP180;40640;48.130;11.356;2023-01-10T20:18:55;96003.00;;;3.90
54746;BMP180;40640;48.130;11.356;2023-01-10T20:22:59;95988.00;;;3.50
54746;BMP180;40640;48.130;11.356;2023-01-10T20:27:03;95981.00;;;3.50
54746;BMP180;40640;48.130;11.356;2023-01-10T20:31:13;95981.00;;;3.50
54746;BMP180;40640;48.130;11.356;2023-01-10T20:35:16;95977.00;;;3.40
54746;BMP180;40640;48.130;11.356;2023-01-10T20:39:23;95963.00;;;3.40
54746;BMP180;40640;48.130;11.356;2023-01-10T20:43:27;95956.00;;;3.50
54746;BMP180;40640;48.130;11.356;2023-01-10T20:47:30;95959.00;;;3.50
54746;BMP180;40640;48.130;11.356;2023-01-10T20:51:34;95955.00;;;3.40
54746;BMP180;40640;48.130;11.356;2023-01-10T20:55:38;95959.00;;;3.50
54746;BMP180;40640;48.130;11.356;2023-01-10T20:59:41;95965.00;;;3.60
54746;BMP180;40640;48.130;11.356;2023-01-10T21:03:45;95963.00;;;3.60
54746;BMP180;40640;48.130;11.356;2023-01-10T21:07:48;95966.00;;;3.50
54746;BMP180;40640;48.130;11.356;2023-01-10T21:11:52;95962.00;;;3.50
54746;BMP180;40640;48.130;11.356;2023-01-10T21:16:16;95967.00;;;3.60
54746;BMP180;40640;48.130;11.356;2023-01-10T21:20:20;95959.00;;;3.60
54746;BMP180;40640;48.130;11.356;2023-01-10T21:24:23;95975.00;;;3.80
54746;BMP180;40640;48.130;11.356;2023-01-10T21:28:28;95963.00;;;3.60
54746;BMP180;40640;48.130;11.356;2023-01-10T21:32:31;95961.00;;;3.70
54746;BMP180;40640;48.130;11.356;2023-01-10T21:36:34;95950.00;;;3.80
54746;BMP180;40640;48.130;11.356;2023-01-10T21:40:37;95941.00;;;4.00
54746;BMP180;40640;48.130;11.356;2023-01-10T21:44:41;95948.00;;;4.10
54746;BMP180;40640;48.130;11.356;2023-01-10T21:48:44;95938.00;;;4.00
54746;BMP180;40640;48.130;11.356;2023-01-10T21:52:47;95939.00;;;4.00
54746;BMP180;40640;48.130;11.356;2023-01-10T21:56:50;95933.00;;;4.00
54746;BMP180;40640;48.130;11.356;2023-01-10T22:00:55;95932.00;;;4.00
54746;BMP180;40640;48.130;11.356;2023-01-10T22:04:59;95933.00;;;4.00
54746;BMP180;40640;48.130;11.356;2023-01-10T22:09:02;95923.00;;;3.90
54746;BMP180;40640;48.130;11.356;2023-01-10T22:13:05;95932.00;;;4.10
54746;BMP180;40640;48.130;11.356;2023-01-10T22:17:09;95926.00;;;4.10
54746;BMP180;40640;48.130;11.356;2023-01-10T22:21:12;95934.00;;;4.00
54746;BMP180;40640;48.130;11.356;2023-01-10T22:25:16;95927.00;;;4.00
54746;BMP180;40640;48.130;11.356;2023-01-10T22:29:18;95930.00;;;4.00
54746;BMP180;40640;48.130;11.356;2023-01-10T22:33:27;95920.00;;;4.20
54746;BMP180;40640;48.130;11.356;2023-01-10T22:37:30;95920.00;;;4.00
54746;BMP180;40640;48.130;11.356;2023-01-10T22:41:33;95926.00;;;3.90
54746;BMP180;40640;48.130;11.356;2023-01-10T22:45:39;95912.00;;;3.90
54746;BMP180;40640;48.130;11.356;2023-01-10T22:49:43;95906.00;;;3.90
54746;BMP180;40640;48.130;11.356;2023-01-10T22:53:48;95895.00;;;4.00
54746;BMP180;40640;48.130;11.356;2023-01-10T22:57:51;95899.00;;;4.00
54746;BMP180;40640;48.130;11.356;2023-01-10T23:01:54;95897.00;;;4.10
54746;BMP180;40640;48.130;11.356;2023-01-10T23:05:59;95900.00;;;4.10
54746;BMP180;40640;48.130;11.356;2023-01-10T23:10:03;95903.00;;;4.30
54746;BMP180;40640;48.130;11.356;2023-01-10T23:14:10;95905.00;;;4.20
54746;BMP180;40640;48.130;11.356;2023-01-10T23:18:13;95904.00;;;4.20
54746;BMP180;40640;48.130;11.356;2023-01-10T23:22:18;95902.00;;;4.40
54746;BMP180;40640;48.130;11.356;2023-01-10T23:26:21;95878.00;;;4.30
54746;BMP180;40640;48.130;11.356;2023-01-10T23:30:24;95875.00;;;4.40
54746;BMP180;40640;48.130;11.356;2023-01-10T23:34:27;95869.00;;;4.20
54746;BMP180;40640;48.130;11.356;2023-01-10T23:38:31;95855.00;;;4.40
54746;BMP180;40640;48.130;11.356;2023-01-10T23:42:34;95870.00;;;4.70